Flight Sim Network - KGXY Airport Info

    KGXY (Greeley–Weld County Airport)  Login to use Map Selector
   

  RUNWAY INFORMATION    |    Airport Elevation : 4697ft    |    LAT : 40.4374008179  /  LON : -104.633003235
Runway Number 09 / 27 Runway Width 100' Runway Length 5801'
Lighted Runway Yes Runway StatusOpen Runway Surface Asphalt
Runway Number 16 / 34 Runway Width 100' Runway Length 10000'
Lighted Runway Yes Runway StatusOpen Runway Surface Asphalt
Runway Number 17 / 35 Runway Width 75' Runway Length 3599'
Lighted Runway No Runway StatusCLOSED Runway Surface Asphalt
  CLOSE ALTERNATE AIRPORTS
ICAODistanceAirport NameLongest RWRW SurfaceMAP
11V7NMEaston4000FTDirt
03CO14NMKugel-Strong Airport4000FTAsphalt
00CO17NMCass Field3900FTDirt
KFNL17NMFort Collins Loveland Municipal Airport8503FTAsphalt
1CO318NMBellmore Farms Airport5000FTGravel
18V20NMPlatte Valley4100FTAsphalt
CO8221NMLand Airport3000FTConcrete
3V521NMFt Collins Downtown5326FTAsphalt
8CO224NMWilliam Leon Schawo Airport3800FTGrass
7CO324NMLindys Airpark3000FTDirt
  AIRPORT WEATHER
82°F | 28°C
Temperature
34%
Humidity
30" | 1019mb
Pressure
8sm
Visibility
VFR
Flight Rules
CLR
Initial Clouds
FAIR
Conditions
Wind Info
7/23/24 17:56Z
Updated

KGXY 231756Z 00000KT 8SM CLR 28/11 A3022 RMK AO2 SLP191 T02830111 10283 20122 58003
  AIRPORT FREQUENCIES
NameFrequency
CLEARANCE122.650
UNICOM122.800
MULTICOM122.800
APPROACH134.850
DEPARTURE134.850
IDCI (RWY 34)110.300

Powered by Virtual Airlines Manager